sensor_id;sensor_type;location;lat;lon;timestamp;P1;durP1;ratioP1;P2;durP2;ratioP2
78344;SDS011;67620;51.134;6.548;2023-03-20T00:03:49;14.82;;;8.90;;
78344;SDS011;67620;51.134;6.548;2023-03-20T00:06:19;24.45;;;13.43;;
78344;SDS011;67620;51.134;6.548;2023-03-20T00:08:47;16.65;;;10.13;;
78344;SDS011;67620;51.134;6.548;2023-03-20T00:11:29;18.30;;;9.65;;
78344;SDS011;67620;51.134;6.548;2023-03-20T00:14:07;19.48;;;11.43;;
78344;SDS011;67620;51.134;6.548;2023-03-20T00:16:38;16.75;;;10.23;;
78344;SDS011;67620;51.134;6.548;2023-03-20T00:19:09;21.77;;;11.65;;
78344;SDS011;67620;51.134;6.548;2023-03-20T00:21:47;19.80;;;12.07;;
78344;SDS011;67620;51.134;6.548;2023-03-20T00:24:14;18.75;;;11.13;;
78344;SDS011;67620;51.134;6.548;2023-03-20T00:29:09;16.55;;;9.70;;
78344;SDS011;67620;51.134;6.548;2023-03-20T00:31:42;17.73;;;10.15;;
78344;SDS011;67620;51.134;6.548;2023-03-20T00:34:12;17.02;;;9.93;;
78344;SDS011;67620;51.134;6.548;2023-03-20T00:36:39;15.25;;;9.05;;
78344;SDS011;67620;51.134;6.548;2023-03-20T00:39:05;17.83;;;10.18;;
78344;SDS011;67620;51.134;6.548;2023-03-20T00:42:15;18.17;;;9.50;;
78344;SDS011;67620;51.134;6.548;2023-03-20T00:44:31;19.95;;;11.02;;
78344;SDS011;67620;51.134;6.548;2023-03-20T00:49:43;19.10;;;11.32;;
78344;SDS011;67620;51.134;6.548;2023-03-20T00:52:10;20.52;;;10.88;;
78344;SDS011;67620;51.134;6.548;2023-03-20T00:54:38;19.15;;;10.93;;
78344;SDS011;67620;51.134;6.548;2023-03-20T00:57:08;15.90;;;9.50;;
78344;SDS011;67620;51.134;6.548;2023-03-20T00:59:50;16.98;;;10.40;;
78344;SDS011;67620;51.134;6.548;2023-03-20T01:02:20;16.23;;;10.43;;
78344;SDS011;67620;51.134;6.548;2023-03-20T01:04:47;18.13;;;9.88;;
78344;SDS011;67620;51.134;6.548;2023-03-20T01:07:13;15.60;;;8.90;;
78344;SDS011;67620;51.134;6.548;2023-03-20T01:09:40;22.83;;;11.85;;
78344;SDS011;67620;51.134;6.548;2023-03-20T01:12:06;17.23;;;10.52;;
78344;SDS011;67620;51.134;6.548;2023-03-20T01:14:34;18.30;;;10.90;;
78344;SDS011;67620;51.134;6.548;2023-03-20T01:17:00;18.20;;;11.15;;
78344;SDS011;67620;51.134;6.548;2023-03-20T01:19:25;21.25;;;12.13;;
78344;SDS011;67620;51.134;6.548;2023-03-20T01:21:51;17.95;;;10.43;;
78344;SDS011;67620;51.134;6.548;2023-03-20T01:24:16;19.88;;;11.13;;
78344;SDS011;67620;51.134;6.548;2023-03-20T01:26:42;16.75;;;10.13;;
78344;SDS011;67620;51.134;6.548;2023-03-20T01:29:19;19.50;;;11.00;;
78344;SDS011;67620;51.134;6.548;2023-03-20T01:31:49;18.10;;;10.55;;
78344;SDS011;67620;51.134;6.548;2023-03-20T01:34:16;17.60;;;10.40;;
78344;SDS011;67620;51.134;6.548;2023-03-20T01:36:43;19.20;;;10.02;;
78344;SDS011;67620;51.134;6.548;2023-03-20T01:39:21;19.10;;;10.57;;
78344;SDS011;67620;51.134;6.548;2023-03-20T01:41:52;25.98;;;11.93;;
78344;SDS011;67620;51.134;6.548;2023-03-20T01:44:19;25.70;;;12.48;;
78344;SDS011;67620;51.134;6.548;2023-03-20T01:46:51;17.70;;;10.77;;
78344;SDS011;67620;51.134;6.548;2023-03-20T01:51:43;18.25;;;10.60;;
78344;SDS011;67620;51.134;6.548;2023-03-20T01:54:19;18.35;;;9.35;;
78344;SDS011;67620;51.134;6.548;2023-03-20T01:56:46;18.55;;;10.13;;
78344;SDS011;67620;51.134;6.548;2023-03-20T01:59:28;14.75;;;9.23;;
78344;SDS011;67620;51.134;6.548;2023-03-20T02:01:58;18.92;;;12.57;;
78344;SDS011;67620;51.134;6.548;2023-03-20T02:04:29;21.58;;;12.75;;
78344;SDS011;67620;51.134;6.548;2023-03-20T02:07:01;17.80;;;11.95;;
78344;SDS011;67620;51.134;6.548;2023-03-20T02:09:29;17.73;;;10.75;;
78344;SDS011;67620;51.134;6.548;2023-03-20T02:11:54;20.17;;;11.02;;
78344;SDS011;67620;51.134;6.548;2023-03-20T02:14:21;19.80;;;10.70;;
78344;SDS011;67620;51.134;6.548;2023-03-20T02:16:47;18.73;;;10.38;;
78344;SDS011;67620;51.134;6.548;2023-03-20T02:19:20;20.27;;;10.48;;
78344;SDS011;67620;51.134;6.548;2023-03-20T02:27:49;17.27;;;9.73;;
78344;SDS011;67620;51.134;6.548;2023-03-20T02:30:48;19.10;;;10.13;;
78344;SDS011;67620;51.134;6.548;2023-03-20T02:37:13;18.98;;;10.65;;
78344;SDS011;67620;51.134;6.548;2023-03-20T02:40:01;20.25;;;11.10;;
78344;SDS011;67620;51.134;6.548;2023-03-20T02:43:10;20.15;;;10.95;;
78344;SDS011;67620;51.134;6.548;2023-03-20T02:45:55;22.77;;;11.57;;
78344;SDS011;67620;51.134;6.548;2023-03-20T02:48:45;19.83;;;10.00;;
78344;SDS011;67620;51.134;6.548;2023-03-20T02:54:04;17.85;;;9.65;;
78344;SDS011;67620;51.134;6.548;2023-03-20T02:56:52;18.35;;;10.82;;
78344;SDS011;67620;51.134;6.548;2023-03-20T03:02:14;19.75;;;11.02;;
78344;SDS011;67620;51.134;6.548;2023-03-20T03:04:53;23.73;;;11.52;;
78344;SDS011;67620;51.134;6.548;2023-03-20T03:07:23;19.75;;;10.35;;
78344;SDS011;67620;51.134;6.548;2023-03-20T03:09:54;20.58;;;11.20;;
78344;SDS011;67620;51.134;6.548;2023-03-20T03:12:40;20.00;;;10.93;;
78344;SDS011;67620;51.134;6.548;2023-03-20T03:15:13;20.58;;;10.27;;
78344;SDS011;67620;51.134;6.548;2023-03-20T03:17:55;17.83;;;10.43;;
78344;SDS011;67620;51.134;6.548;2023-03-20T03:20:24;18.98;;;10.05;;
78344;SDS011;67620;51.134;6.548;2023-03-20T03:22:53;18.48;;;10.35;;
78344;SDS011;67620;51.134;6.548;2023-03-20T03:25:20;19.15;;;10.48;;
78344;SDS011;67620;51.134;6.548;2023-03-20T03:27:53;20.55;;;10.80;;
78344;SDS011;67620;51.134;6.548;2023-03-20T03:30:29;18.35;;;10.40;;
78344;SDS011;67620;51.134;6.548;2023-03-20T03:35:49;21.38;;;9.80;;
78344;SDS011;67620;51.134;6.548;2023-03-20T03:38:23;18.60;;;9.15;;
78344;SDS011;67620;51.134;6.548;2023-03-20T03:43:40;19.45;;;10.40;;
78344;SDS011;67620;51.134;6.548;2023-03-20T03:46:16;16.42;;;9.35;;
78344;SDS011;67620;51.134;6.548;2023-03-20T03:48:51;15.63;;;9.00;;
78344;SDS011;67620;51.134;6.548;2023-03-20T03:51:22;17.88;;;8.65;;
78344;SDS011;67620;51.134;6.548;2023-03-20T03:53:52;16.73;;;9.20;;
78344;SDS011;67620;51.134;6.548;2023-03-20T03:56:38;15.50;;;8.25;;
78344;SDS011;67620;51.134;6.548;2023-03-20T03:59:10;14.73;;;7.70;;
78344;SDS011;67620;51.134;6.548;2023-03-20T04:01:42;14.27;;;8.07;;
78344;SDS011;67620;51.134;6.548;2023-03-20T04:04:09;14.02;;;7.57;;
78344;SDS011;67620;51.134;6.548;2023-03-20T04:06:38;15.82;;;7.93;;
78344;SDS011;67620;51.134;6.548;2023-03-20T04:09:04;14.05;;;7.68;;
78344;SDS011;67620;51.134;6.548;2023-03-20T04:11:29;12.85;;;7.80;;
78344;SDS011;67620;51.134;6.548;2023-03-20T04:13:55;12.88;;;7.32;;
78344;SDS011;67620;51.134;6.548;2023-03-20T04:16:21;12.93;;;6.97;;
78344;SDS011;67620;51.134;6.548;2023-03-20T04:18:48;14.48;;;7.88;;
78344;SDS011;67620;51.134;6.548;2023-03-20T04:21:14;11.77;;;6.70;;
78344;SDS011;67620;51.134;6.548;2023-03-20T04:23:40;12.70;;;7.32;;
78344;SDS011;67620;51.134;6.548;2023-03-20T04:26:06;14.73;;;7.60;;
78344;SDS011;67620;51.134;6.548;2023-03-20T04:28:31;18.08;;;8.38;;
78344;SDS011;67620;51.134;6.548;2023-03-20T04:30:58;13.23;;;7.63;;
78344;SDS011;67620;51.134;6.548;2023-03-20T04:33:25;12.75;;;7.88;;
78344;SDS011;67620;51.134;6.548;2023-03-20T04:35:51;13.98;;;7.80;;
78344;SDS011;67620;51.134;6.548;2023-03-20T04:38:17;13.27;;;7.63;;
78344;SDS011;67620;51.134;6.548;2023-03-20T04:40:44;16.40;;;8.45;;
78344;SDS011;67620;51.134;6.548;2023-03-20T04:43:10;13.48;;;7.22;;
78344;SDS011;67620;51.134;6.548;2023-03-20T04:45:36;13.43;;;7.95;;
78344;SDS011;67620;51.134;6.548;2023-03-20T04:48:01;15.00;;;8.30;;
78344;SDS011;67620;51.134;6.548;2023-03-20T04:50:27;15.73;;;8.00;;
78344;SDS011;67620;51.134;6.548;2023-03-20T04:52:52;17.83;;;8.95;;
78344;SDS011;67620;51.134;6.548;2023-03-20T04:55:18;16.88;;;9.07;;
78344;SDS011;67620;51.134;6.548;2023-03-20T04:57:44;18.08;;;8.98;;
78344;SDS011;67620;51.134;6.548;2023-03-20T05:00:10;17.63;;;8.65;;
78344;SDS011;67620;51.134;6.548;2023-03-20T05:02:35;20.60;;;9.70;;
78344;SDS011;67620;51.134;6.548;2023-03-20T05:05:01;21.25;;;10.15;;
78344;SDS011;67620;51.134;6.548;2023-03-20T05:07:27;17.80;;;9.52;;
78344;SDS011;67620;51.134;6.548;2023-03-20T05:09:52;19.10;;;10.10;;
78344;SDS011;67620;51.134;6.548;2023-03-20T05:12:18;21.83;;;10.30;;
78344;SDS011;67620;51.134;6.548;2023-03-20T05:17:10;19.85;;;9.95;;
78344;SDS011;67620;51.134;6.548;2023-03-20T05:19:35;19.65;;;9.93;;
78344;SDS011;67620;51.134;6.548;2023-03-20T05:22:02;20.80;;;10.35;;
78344;SDS011;67620;51.134;6.548;2023-03-20T05:24:28;20.63;;;9.45;;
78344;SDS011;67620;51.134;6.548;2023-03-20T05:26:55;22.48;;;11.27;;
78344;SDS011;67620;51.134;6.548;2023-03-20T05:29:21;20.55;;;9.65;;
78344;SDS011;67620;51.134;6.548;2023-03-20T05:31:47;19.77;;;9.27;;
78344;SDS011;67620;51.134;6.548;2023-03-20T05:34:12;17.75;;;8.90;;
78344;SDS011;67620;51.134;6.548;2023-03-20T05:36:38;18.73;;;8.95;;
78344;SDS011;67620;51.134;6.548;2023-03-20T05:39:03;17.77;;;9.93;;
78344;SDS011;67620;51.134;6.548;2023-03-20T05:41:29;19.30;;;9.23;;
78344;SDS011;67620;51.134;6.548;2023-03-20T05:43:55;81.50;;;46.35;;
78344;SDS011;67620;51.134;6.548;2023-03-20T05:46:21;168.45;;;104.13;;
78344;SDS011;67620;51.134;6.548;2023-03-20T05:48:48;83.25;;;50.30;;
78344;SDS011;67620;51.134;6.548;2023-03-20T05:51:14;22.08;;;11.05;;
78344;SDS011;67620;51.134;6.548;2023-03-20T05:53:39;22.13;;;10.75;;
78344;SDS011;67620;51.134;6.548;2023-03-20T05:56:05;51.78;;;25.55;;
78344;SDS011;67620;51.134;6.548;2023-03-20T05:58:31;23.38;;;10.52;;
78344;SDS011;67620;51.134;6.548;2023-03-20T06:00:57;26.00;;;12.25;;
78344;SDS011;67620;51.134;6.548;2023-03-20T06:03:23;20.00;;;10.52;;
78344;SDS011;67620;51.134;6.548;2023-03-20T06:05:49;23.75;;;10.73;;
78344;SDS011;67620;51.134;6.548;2023-03-20T06:08:14;21.35;;;10.93;;
78344;SDS011;67620;51.134;6.548;2023-03-20T06:10:40;19.60;;;10.38;;
78344;SDS011;67620;51.134;6.548;2023-03-20T06:13:05;21.55;;;10.80;;
78344;SDS011;67620;51.134;6.548;2023-03-20T06:15:31;18.83;;;9.02;;
78344;SDS011;67620;51.134;6.548;2023-03-20T06:17:57;17.33;;;9.65;;
78344;SDS011;67620;51.134;6.548;2023-03-20T06:20:23;27.30;;;10.27;;
78344;SDS011;67620;51.134;6.548;2023-03-20T06:25:14;18.77;;;8.43;;
78344;SDS011;67620;51.134;6.548;2023-03-20T06:27:40;18.42;;;8.57;;
78344;SDS011;67620;51.134;6.548;2023-03-20T06:30:06;20.45;;;8.82;;
78344;SDS011;67620;51.134;6.548;2023-03-20T06:34:57;16.83;;;7.80;;
78344;SDS011;67620;51.134;6.548;2023-03-20T06:37:23;17.38;;;8.07;;
78344;SDS011;67620;51.134;6.548;2023-03-20T06:39:48;15.40;;;7.85;;
78344;SDS011;67620;51.134;6.548;2023-03-20T06:42:14;16.05;;;8.23;;
78344;SDS011;67620;51.134;6.548;2023-03-20T06:44:40;18.58;;;8.05;;
78344;SDS011;67620;51.134;6.548;2023-03-20T06:47:06;12.60;;;6.80;;
78344;SDS011;67620;51.134;6.548;2023-03-20T06:49:32;15.45;;;7.20;;
78344;SDS011;67620;51.134;6.548;2023-03-20T06:51:57;12.88;;;7.07;;
78344;SDS011;67620;51.134;6.548;2023-03-20T06:54:23;12.18;;;6.13;;
78344;SDS011;67620;51.134;6.548;2023-03-20T06:56:49;14.40;;;6.53;;
78344;SDS011;67620;51.134;6.548;2023-03-20T06:59:15;18.67;;;7.60;;
78344;SDS011;67620;51.134;6.548;2023-03-20T07:01:40;18.23;;;7.03;;
78344;SDS011;67620;51.134;6.548;2023-03-20T07:04:06;15.45;;;7.55;;
78344;SDS011;67620;51.134;6.548;2023-03-20T07:06:31;14.23;;;6.95;;
78344;SDS011;67620;51.134;6.548;2023-03-20T07:08:57;12.23;;;6.97;;
78344;SDS011;67620;51.134;6.548;2023-03-20T07:11:23;13.73;;;6.65;;
78344;SDS011;67620;51.134;6.548;2023-03-20T07:13:49;17.55;;;7.28;;
78344;SDS011;67620;51.134;6.548;2023-03-20T07:16:14;13.00;;;6.68;;
78344;SDS011;67620;51.134;6.548;2023-03-20T07:18:40;12.45;;;5.88;;
78344;SDS011;67620;51.134;6.548;2023-03-20T07:21:05;12.88;;;6.55;;
78344;SDS011;67620;51.134;6.548;2023-03-20T07:23:32;12.60;;;6.10;;
78344;SDS011;67620;51.134;6.548;2023-03-20T07:26:01;16.20;;;6.32;;
78344;SDS011;67620;51.134;6.548;2023-03-20T07:28:27;14.55;;;6.35;;
78344;SDS011;67620;51.134;6.548;2023-03-20T07:30:53;14.25;;;6.38;;
78344;SDS011;67620;51.134;6.548;2023-03-20T07:33:19;11.18;;;6.60;;
78344;SDS011;67620;51.134;6.548;2023-03-20T07:35:44;13.35;;;7.15;;
78344;SDS011;67620;51.134;6.548;2023-03-20T07:38:10;13.80;;;6.13;;
78344;SDS011;67620;51.134;6.548;2023-03-20T07:40:36;16.90;;;6.72;;
78344;SDS011;67620;51.134;6.548;2023-03-20T07:43:02;14.35;;;7.15;;
78344;SDS011;67620;51.134;6.548;2023-03-20T07:45:28;14.10;;;6.95;;
78344;SDS011;67620;51.134;6.548;2023-03-20T07:47:53;13.75;;;6.55;;
78344;SDS011;67620;51.134;6.548;2023-03-20T07:50:19;16.27;;;7.50;;
78344;SDS011;67620;51.134;6.548;2023-03-20T07:52:45;15.43;;;6.78;;
78344;SDS011;67620;51.134;6.548;2023-03-20T07:55:11;15.43;;;6.93;;
78344;SDS011;67620;51.134;6.548;2023-03-20T07:57:37;17.35;;;6.88;;
78344;SDS011;67620;51.134;6.548;2023-03-20T08:00:03;13.60;;;6.63;;
78344;SDS011;67620;51.134;6.548;2023-03-20T08:02:29;11.85;;;6.35;;
78344;SDS011;67620;51.134;6.548;2023-03-20T08:04:54;11.63;;;6.07;;
78344;SDS011;67620;51.134;6.548;2023-03-20T08:07:20;14.88;;;6.35;;
78344;SDS011;67620;51.134;6.548;2023-03-20T08:09:45;14.30;;;6.15;;
78344;SDS011;67620;51.134;6.548;2023-03-20T08:12:11;13.40;;;6.47;;
78344;SDS011;67620;51.134;6.548;2023-03-20T08:14:36;13.05;;;6.63;;
78344;SDS011;67620;51.134;6.548;2023-03-20T08:17:03;13.43;;;6.50;;
78344;SDS011;67620;51.134;6.548;2023-03-20T08:19:29;11.60;;;6.28;;
78344;SDS011;67620;51.134;6.548;2023-03-20T08:21:55;12.27;;;6.18;;
78344;SDS011;67620;51.134;6.548;2023-03-20T08:24:20;14.20;;;6.03;;
78344;SDS011;67620;51.134;6.548;2023-03-20T08:26:46;11.40;;;5.80;;
78344;SDS011;67620;51.134;6.548;2023-03-20T08:29:12;13.43;;;5.80;;
78344;SDS011;67620;51.134;6.548;2023-03-20T08:31:38;10.88;;;5.53;;
78344;SDS011;67620;51.134;6.548;2023-03-20T08:34:04;11.73;;;5.35;;
78344;SDS011;67620;51.134;6.548;2023-03-20T08:36:29;11.60;;;5.72;;
78344;SDS011;67620;51.134;6.548;2023-03-20T08:38:55;12.80;;;5.30;;
78344;SDS011;67620;51.134;6.548;2023-03-20T08:41:21;14.38;;;6.32;;
78344;SDS011;67620;51.134;6.548;2023-03-20T08:43:46;11.05;;;5.43;;
78344;SDS011;67620;51.134;6.548;2023-03-20T08:46:12;13.30;;;5.68;;
78344;SDS011;67620;51.134;6.548;2023-03-20T08:48:37;13.77;;;6.03;;
78344;SDS011;67620;51.134;6.548;2023-03-20T08:51:03;8.90;;;4.95;;
78344;SDS011;67620;51.134;6.548;2023-03-20T08:53:29;10.98;;;5.05;;
78344;SDS011;67620;51.134;6.548;2023-03-20T08:55:54;11.45;;;4.95;;
78344;SDS011;67620;51.134;6.548;2023-03-20T08:58:21;12.38;;;5.32;;
78344;SDS011;67620;51.134;6.548;2023-03-20T09:03:16;12.50;;;5.03;;
78344;SDS011;67620;51.134;6.548;2023-03-20T09:05:43;13.57;;;4.85;;
78344;SDS011;67620;51.134;6.548;2023-03-20T09:08:10;11.43;;;5.38;;
78344;SDS011;67620;51.134;6.548;2023-03-20T09:10:36;10.23;;;4.55;;
78344;SDS011;67620;51.134;6.548;2023-03-20T09:13:01;11.50;;;4.40;;
78344;SDS011;67620;51.134;6.548;2023-03-20T09:15:27;6.97;;;3.90;;
78344;SDS011;67620;51.134;6.548;2023-03-20T09:17:53;13.30;;;4.22;;
78344;SDS011;67620;51.134;6.548;2023-03-20T09:20:18;5.93;;;3.33;;
78344;SDS011;67620;51.134;6.548;2023-03-20T09:22:44;9.10;;;3.97;;
78344;SDS011;67620;51.134;6.548;2023-03-20T09:25:10;9.70;;;4.00;;
78344;SDS011;67620;51.134;6.548;2023-03-20T09:27:36;7.43;;;3.63;;
78344;SDS011;67620;51.134;6.548;2023-03-20T09:30:06;9.07;;;3.40;;
78344;SDS011;67620;51.134;6.548;2023-03-20T09:32:34;8.10;;;3.22;;
78344;SDS011;67620;51.134;6.548;2023-03-20T09:35:00;10.35;;;3.97;;
78344;SDS011;67620;51.134;6.548;2023-03-20T09:37:26;10.52;;;3.50;;
78344;SDS011;67620;51.134;6.548;2023-03-20T09:39:52;9.52;;;3.30;;
78344;SDS011;67620;51.134;6.548;2023-03-20T09:42:30;7.13;;;3.50;;
78344;SDS011;67620;51.134;6.548;2023-03-20T09:48:14;7.50;;;3.08;;
78344;SDS011;67620;51.134;6.548;2023-03-20T09:50:39;10.82;;;3.42;;
78344;SDS011;67620;51.134;6.548;2023-03-20T09:55:55;10.52;;;3.63;;
78344;SDS011;67620;51.134;6.548;2023-03-20T09:58:31;7.30;;;3.20;;
78344;SDS011;67620;51.134;6.548;2023-03-20T10:01:00;6.47;;;3.33;;
78344;SDS011;67620;51.134;6.548;2023-03-20T10:03:50;10.75;;;3.30;;
78344;SDS011;67620;51.134;6.548;2023-03-20T10:06:19;9.57;;;3.00;;
78344;SDS011;67620;51.134;6.548;2023-03-20T10:08:45;12.02;;;3.83;;
78344;SDS011;67620;51.134;6.548;2023-03-20T10:13:47;9.63;;;3.20;;
78344;SDS011;67620;51.134;6.548;2023-03-20T10:16:49;10.93;;;4.22;;
78344;SDS011;67620;51.134;6.548;2023-03-20T10:19:30;10.38;;;3.30;;
78344;SDS011;67620;51.134;6.548;2023-03-20T10:24:33;12.32;;;3.60;;
78344;SDS011;67620;51.134;6.548;2023-03-20T10:27:25;9.05;;;3.88;;
78344;SDS011;67620;51.134;6.548;2023-03-20T10:35:20;8.55;;;3.40;;
78344;SDS011;67620;51.134;6.548;2023-03-20T10:40:31;8.10;;;3.08;;
78344;SDS011;67620;51.134;6.548;2023-03-20T10:43:07;10.52;;;4.35;;
78344;SDS011;67620;51.134;6.548;2023-03-20T10:45:45;14.88;;;3.65;;
78344;SDS011;67620;51.134;6.548;2023-03-20T10:48:28;8.18;;;2.60;;
78344;SDS011;67620;51.134;6.548;2023-03-20T10:51:19;8.25;;;2.75;;
78344;SDS011;67620;51.134;6.548;2023-03-20T10:53:51;6.63;;;2.35;;
78344;SDS011;67620;51.134;6.548;2023-03-20T10:56:26;6.18;;;2.45;;
78344;SDS011;67620;51.134;6.548;2023-03-20T10:59:03;6.82;;;2.33;;
78344;SDS011;67620;51.134;6.548;2023-03-20T11:01:32;9.10;;;2.72;;
78344;SDS011;67620;51.134;6.548;2023-03-20T11:03:58;7.63;;;2.55;;
78344;SDS011;67620;51.134;6.548;2023-03-20T11:06:30;10.63;;;2.60;;
78344;SDS011;67620;51.134;6.548;2023-03-20T11:09:07;10.80;;;2.97;;
78344;SDS011;67620;51.134;6.548;2023-03-20T11:11:36;7.20;;;2.53;;
78344;SDS011;67620;51.134;6.548;2023-03-20T11:14:09;7.32;;;2.83;;
78344;SDS011;67620;51.134;6.548;2023-03-20T11:16:42;8.48;;;2.45;;
78344;SDS011;67620;51.134;6.548;2023-03-20T11:19:12;6.20;;;1.80;;
78344;SDS011;67620;51.134;6.548;2023-03-20T11:22:00;4.25;;;2.00;;
78344;SDS011;67620;51.134;6.548;2023-03-20T11:24:43;3.95;;;1.58;;
78344;SDS011;67620;51.134;6.548;2023-03-20T11:27:15;5.82;;;1.67;;
78344;SDS011;67620;51.134;6.548;2023-03-20T11:29:45;5.80;;;2.28;;
78344;SDS011;67620;51.134;6.548;2023-03-20T11:34:53;6.45;;;2.55;;
78344;SDS011;67620;51.134;6.548;2023-03-20T11:37:24;6.55;;;2.10;;
78344;SDS011;67620;51.134;6.548;2023-03-20T11:39:56;9.18;;;2.40;;
78344;SDS011;67620;51.134;6.548;2023-03-20T11:42:25;5.50;;;2.42;;
78344;SDS011;67620;51.134;6.548;2023-03-20T11:44:56;6.50;;;1.90;;
78344;SDS011;67620;51.134;6.548;2023-03-20T11:47:28;5.55;;;2.28;;
78344;SDS011;67620;51.134;6.548;2023-03-20T11:49:58;9.23;;;2.65;;
78344;SDS011;67620;51.134;6.548;2023-03-20T11:52:30;7.05;;;2.40;;
78344;SDS011;67620;51.134;6.548;2023-03-20T11:57:35;8.20;;;2.60;;
78344;SDS011;67620;51.134;6.548;2023-03-20T12:02:32;7.57;;;2.47;;
78344;SDS011;67620;51.134;6.548;2023-03-20T12:04:59;4.38;;;2.28;;
78344;SDS011;67620;51.134;6.548;2023-03-20T12:07:27;6.28;;;2.58;;
78344;SDS011;67620;51.134;6.548;2023-03-20T12:10:09;10.00;;;3.35;;
78344;SDS011;67620;51.134;6.548;2023-03-20T12:12:37;7.15;;;2.55;;
78344;SDS011;67620;51.134;6.548;2023-03-20T12:18:08;7.20;;;2.70;;
78344;SDS011;67620;51.134;6.548;2023-03-20T12:23:30;8.73;;;2.83;;
78344;SDS011;67620;51.134;6.548;2023-03-20T12:26:04;8.98;;;2.38;;
78344;SDS011;67620;51.134;6.548;2023-03-20T12:34:15;6.45;;;3.13;;
78344;SDS011;67620;51.134;6.548;2023-03-20T12:36:45;6.88;;;2.65;;
78344;SDS011;67620;51.134;6.548;2023-03-20T12:39:21;5.72;;;2.30;;
78344;SDS011;67620;51.134;6.548;2023-03-20T12:50:32;6.30;;;2.22;;
78344;SDS011;67620;51.134;6.548;2023-03-20T12:53:13;5.65;;;2.05;;
78344;SDS011;67620;51.134;6.548;2023-03-20T12:58:38;4.40;;;1.92;;
78344;SDS011;67620;51.134;6.548;2023-03-20T13:06:13;4.82;;;2.00;;
78344;SDS011;67620;51.134;6.548;2023-03-20T13:12:03;5.97;;;1.90;;
78344;SDS011;67620;51.134;6.548;2023-03-20T13:17:52;9.00;;;2.90;;
78344;SDS011;67620;51.134;6.548;2023-03-20T13:20:40;8.25;;;2.33;;
78344;SDS011;67620;51.134;6.548;2023-03-20T13:28:35;7.70;;;2.55;;
78344;SDS011;67620;51.134;6.548;2023-03-20T13:34:23;8.88;;;3.33;;
78344;SDS011;67620;51.134;6.548;2023-03-20T13:37:22;9.07;;;2.78;;
78344;SDS011;67620;51.134;6.548;2023-03-20T13:45:39;8.10;;;3.00;;
78344;SDS011;67620;51.134;6.548;2023-03-20T13:50:48;8.77;;;2.40;;
78344;SDS011;67620;51.134;6.548;2023-03-20T13:53:32;6.15;;;2.53;;
78344;SDS011;67620;51.134;6.548;2023-03-20T13:56:21;10.55;;;3.13;;
78344;SDS011;67620;51.134;6.548;2023-03-20T14:04:16;9.93;;;3.25;;
78344;SDS011;67620;51.134;6.548;2023-03-20T14:06:49;11.82;;;3.35;;
78344;SDS011;67620;51.134;6.548;2023-03-20T14:09:32;6.38;;;2.70;;
78344;SDS011;67620;51.134;6.548;2023-03-20T14:12:04;11.07;;;2.63;;
78344;SDS011;67620;51.134;6.548;2023-03-20T14:14:38;9.80;;;2.85;;
78344;SDS011;67620;51.134;6.548;2023-03-20T14:17:06;5.65;;;2.63;;
78344;SDS011;67620;51.134;6.548;2023-03-20T14:19:39;11.63;;;3.25;;
78344;SDS011;67620;51.134;6.548;2023-03-20T14:22:05;10.70;;;3.58;;
78344;SDS011;67620;51.134;6.548;2023-03-20T14:24:33;5.32;;;2.80;;
78344;SDS011;67620;51.134;6.548;2023-03-20T14:27:01;7.75;;;3.30;;
78344;SDS011;67620;51.134;6.548;2023-03-20T14:29:31;8.05;;;2.97;;
78344;SDS011;67620;51.134;6.548;2023-03-20T14:32:03;5.65;;;2.45;;
78344;SDS011;67620;51.134;6.548;2023-03-20T14:34:30;9.77;;;3.13;;
78344;SDS011;67620;51.134;6.548;2023-03-20T14:37:34;7.18;;;2.65;;
78344;SDS011;67620;51.134;6.548;2023-03-20T14:40:03;8.30;;;2.72;;
78344;SDS011;67620;51.134;6.548;2023-03-20T14:48:25;7.32;;;2.22;;
78344;SDS011;67620;51.134;6.548;2023-03-20T14:56:45;7.25;;;2.42;;
78344;SDS011;67620;51.134;6.548;2023-03-20T14:59:11;9.98;;;2.70;;
78344;SDS011;67620;51.134;6.548;2023-03-20T15:09:37;8.32;;;2.75;;
78344;SDS011;67620;51.134;6.548;2023-03-20T15:12:07;9.93;;;2.40;;
78344;SDS011;67620;51.134;6.548;2023-03-20T15:14:37;9.65;;;2.53;;
78344;SDS011;67620;51.134;6.548;2023-03-20T15:19:41;11.15;;;3.22;;
78344;SDS011;67620;51.134;6.548;2023-03-20T15:22:13;7.93;;;2.80;;
78344;SDS011;67620;51.134;6.548;2023-03-20T15:24:49;10.05;;;2.47;;
78344;SDS011;67620;51.134;6.548;2023-03-20T15:27:19;7.78;;;2.10;;
78344;SDS011;67620;51.134;6.548;2023-03-20T15:29:48;8.00;;;2.38;;
78344;SDS011;67620;51.134;6.548;2023-03-20T15:32:16;13.38;;;2.63;;
78344;SDS011;67620;51.134;6.548;2023-03-20T15:34:42;6.57;;;1.95;;
78344;SDS011;67620;51.134;6.548;2023-03-20T15:37:11;7.88;;;2.25;;
78344;SDS011;67620;51.134;6.548;2023-03-20T15:39:40;5.60;;;1.73;;
78344;SDS011;67620;51.134;6.548;2023-03-20T15:42:14;7.82;;;2.13;;
78344;SDS011;67620;51.134;6.548;2023-03-20T15:44:43;6.20;;;1.45;;
78344;SDS011;67620;51.134;6.548;2023-03-20T15:49:46;7.40;;;2.30;;
78344;SDS011;67620;51.134;6.548;2023-03-20T15:52:25;8.30;;;2.63;;
78344;SDS011;67620;51.134;6.548;2023-03-20T15:55:05;6.72;;;2.30;;
78344;SDS011;67620;51.134;6.548;2023-03-20T15:57:36;7.47;;;2.50;;
78344;SDS011;67620;51.134;6.548;2023-03-20T16:00:05;7.25;;;2.42;;
78344;SDS011;67620;51.134;6.548;2023-03-20T16:02:38;6.00;;;2.10;;
78344;SDS011;67620;51.134;6.548;2023-03-20T16:05:07;7.07;;;2.50;;
78344;SDS011;67620;51.134;6.548;2023-03-20T16:07:36;10.07;;;2.78;;
78344;SDS011;67620;51.134;6.548;2023-03-20T16:10:02;21.63;;;11.80;;
78344;SDS011;67620;51.134;6.548;2023-03-20T16:12:27;6.85;;;2.40;;
78344;SDS011;67620;51.134;6.548;2023-03-20T16:14:53;5.45;;;2.30;;
78344;SDS011;67620;51.134;6.548;2023-03-20T16:17:20;8.77;;;2.83;;
78344;SDS011;67620;51.134;6.548;2023-03-20T16:19:48;9.57;;;2.25;;
78344;SDS011;67620;51.134;6.548;2023-03-20T16:22:18;9.10;;;2.30;;
78344;SDS011;67620;51.134;6.548;2023-03-20T16:24:54;7.65;;;2.47;;
78344;SDS011;67620;51.134;6.548;2023-03-20T16:27:24;9.73;;;2.70;;
78344;SDS011;67620;51.134;6.548;2023-03-20T16:29:54;3.85;;;2.13;;
78344;SDS011;67620;51.134;6.548;2023-03-20T16:32:27;8.13;;;2.80;;
78344;SDS011;67620;51.134;6.548;2023-03-20T16:35:01;10.85;;;3.40;;
78344;SDS011;67620;51.134;6.548;2023-03-20T16:37:31;7.93;;;2.70;;
78344;SDS011;67620;51.134;6.548;2023-03-20T16:40:13;11.45;;;2.55;;
78344;SDS011;67620;51.134;6.548;2023-03-20T16:42:48;4.78;;;1.95;;
78344;SDS011;67620;51.134;6.548;2023-03-20T16:45:28;7.47;;;2.10;;
78344;SDS011;67620;51.134;6.548;2023-03-20T16:50:35;6.60;;;2.78;;
78344;SDS011;67620;51.134;6.548;2023-03-20T16:53:04;8.65;;;2.38;;
78344;SDS011;67620;51.134;6.548;2023-03-20T16:55:35;6.95;;;2.35;;
78344;SDS011;67620;51.134;6.548;2023-03-20T16:58:06;8.00;;;2.35;;
78344;SDS011;67620;51.134;6.548;2023-03-20T17:00:32;9.80;;;2.17;;
78344;SDS011;67620;51.134;6.548;2023-03-20T17:05:53;9.80;;;2.40;;
78344;SDS011;67620;51.134;6.548;2023-03-20T17:08:35;6.40;;;2.10;;
78344;SDS011;67620;51.134;6.548;2023-03-20T17:11:09;12.23;;;2.53;;
78344;SDS011;67620;51.134;6.548;2023-03-20T17:13:38;10.90;;;2.55;;
78344;SDS011;67620;51.134;6.548;2023-03-20T17:16:03;5.72;;;2.20;;
78344;SDS011;67620;51.134;6.548;2023-03-20T17:20:55;7.65;;;2.55;;
78344;SDS011;67620;51.134;6.548;2023-03-20T17:23:21;5.88;;;2.50;;
78344;SDS011;67620;51.134;6.548;2023-03-20T17:25:47;7.18;;;2.30;;
78344;SDS011;67620;51.134;6.548;2023-03-20T17:28:15;7.88;;;2.42;;
78344;SDS011;67620;51.134;6.548;2023-03-20T17:30:44;44.35;;;21.52;;